Saint George Island, AK (99591)

9:06 PM HDT on May 26, 2015 (GMT -0900)
Saint George | | Change Station
CLOSE
Current Station
Airport
Location: St. George,
Elevation: 125 ft
Nearby Weather Stations

Elev 125 ft 56.58 °N, 169.66 °W | Updated 6 minutes ago

Overcast
Overcast
44 °F
Feels Like 37 °F
N
15
Wind Variable Wind from South

Today
High -- | Low -- °F
--% Chance of Precip.
Yesterday
High -- | Low -- °F
Precip. -- in
5:43 AM 10:48 PM
Waxing Gibbous, 64% visible
Pressure 29.77 in
Visibility 9.0 miles
Clouds Scattered Clouds 1700 ft
Mostly Cloudy 2200 ft
Overcast 3700 ft
Windchill 37 °F
Dew Point 39 °F
Humidity 82%
Rainfall 0.04 in
Snow Depth Not available.
UV 0 out of 12
Pollen Not available.
Air Quality Not available.
Flu Activity Local Activity
SPECI PAPB 270600Z AUTO 18013KT 9SM SCT017 BKN022 OVC037 07/04 A2977 RMK AO2 T00670039 TSNO

More Conditions Fewer Conditions

Pressure 29.77 in
Visibility 9.0 miles
Clouds Scattered Clouds 1700 ft
Mostly Cloudy 2200 ft
Overcast 3700 ft
Windchill 37 °F
Dew Point 39 °F
Humidity 82%
Rainfall 0.04 in
Snow Depth Not available.
UV 0 out of 12
Pollen Not available.
Air Quality Not available.
Flu Activity Local Activity
SPECI PAPB 270600Z AUTO 18013KT 9SM SCT017 BKN022 OVC037 07/04 A2977 RMK AO2 T00670039 TSNO

More Conditions Fewer Conditions

10-Day Weather Forecast

Almanac

Astronomy

May. 26, 2015 Rise Set
Actual Time
Civil Twilight
Nautical Twilight
Astronomical Twilight
Moon
Length of Visible Light
Length of Day
Tomorrow will be .
, % of the Moon is Illuminated

Today's Extremes

State Highs State Lows

Community

WunderPhotos

Upload Photos

1,824,617 photos uploaded!

WunderBlogs® & News

Nearby

Air Quality

  Air Quality AQ Index Pollutant
Not available.

Snow Depth

Station Depth Elevation

Earthquake Activity

City Distance Mag. Time & Date
Minimum magnitude displayed is 2.5.

Coastal Water Temperatures

Place Temperature

Stations

Nearby Weather Stations

Station Location Temp. Windchill Dew Point Humidity Wind Precip. Elev Updated Type